Time;durP1;ratioP1;P1;durP2;ratioP2;P2;SDS_P1;SDS_P2;PMS_P1;PMS_P2;Temp;Humidity;BMP_temperature;BMP_pressure;BME280_temperature;BME280_humidity;BME280_pressure;Samples;Min_cycle;Max_cycle;Signal;HPM_P1;HPM_P2
2021/09/15 00:02:02;;;;;;;11.27;6.33;;;;;;;22.54;56.04;97803.94;8418758;28;20235;-63
2021/09/15 00:06:06;;;;;;;11.83;7.57;;;;;;;22.64;55.70;97795.00;8420024;28;20239;-63
2021/09/15 00:10:09;;;;;;;10.63;7.23;;;;;;;22.72;55.47;97788.97;8419839;28;20212;-63
2021/09/15 00:14:14;;;;;;;9.67;6.83;;;;;;;22.73;55.24;97800.34;8419820;28;20398;-63
2021/09/15 00:18:16;;;;;;;8.33;6.30;;;;;;;22.71;55.07;97795.19;8418667;28;20383;-63
2021/09/15 00:22:19;;;;;;;8.20;6.50;;;;;;;22.78;54.85;97795.44;8419790;28;20273;-63
2021/09/15 00:26:22;;;;;;;8.13;6.33;;;;;;;22.77;55.13;97794.63;8419483;28;20199;-64
2021/09/15 00:30:26;;;;;;;8.50;6.50;;;;;;;22.64;55.06;97802.91;8419294;28;20551;-63
2021/09/15 00:34:30;;;;;;;8.23;6.57;;;;;;;22.48;55.55;97800.06;8419229;28;20234;-63
2021/09/15 00:38:33;;;;;;;7.13;6.17;;;;;;;22.54;55.20;97793.38;8418950;28;20206;-64
2021/09/15 00:42:36;;;;;;;6.83;6.10;;;;;;;22.46;55.65;97788.84;8419034;28;20205;-63
2021/09/15 00:46:40;;;;;;;8.77;7.10;;;;;;;22.50;55.28;97790.19;8418856;28;20210;-64
2021/09/15 00:50:43;;;;;;;9.13;6.47;;;;;;;22.50;55.41;97792.84;8418678;28;20256;-63
2021/09/15 00:54:47;;;;;;;7.70;6.80;;;;;;;22.45;55.45;97785.38;8418622;28;20202;-64
2021/09/15 00:58:50;;;;;;;8.23;6.67;;;;;;;22.33;55.87;97772.53;8418696;28;20199;-64
2021/09/15 01:02:54;;;;;;;8.27;6.53;;;;;;;22.34;55.73;97772.38;8418023;28;20389;-63
2021/09/15 01:06:57;;;;;;;8.23;6.90;;;;;;;22.22;55.71;97769.09;8418301;28;20227;-64
2021/09/15 01:11:00;;;;;;;8.30;6.30;;;;;;;22.38;55.51;97773.75;8418090;28;20253;-64
2021/09/15 01:15:04;;;;;;;6.90;6.10;;;;;;;22.30;55.83;97770.19;8417896;28;20394;-63
2021/09/15 01:19:08;;;;;;;9.10;6.60;;;;;;;22.17;56.34;97770.50;8417551;28;20202;-64
2021/09/15 01:23:13;;;;;;;7.40;6.53;;;;;;;22.23;56.07;97768.09;8417516;28;20212;-63
2021/09/15 01:27:16;;;;;;;8.37;6.70;;;;;;;22.18;56.05;97769.50;8417353;28;20199;-63
2021/09/15 01:31:19;;;;;;;6.57;5.97;;;;;;;22.09;56.51;97773.88;8417342;28;20233;-64
2021/09/15 01:35:22;;;;;;;9.77;6.63;;;;;;;22.24;55.72;97767.13;8416961;28;20222;-63
2021/09/15 01:39:26;;;;;;;7.40;6.20;;;;;;;22.17;56.25;97759.94;8417332;28;20206;-63
2021/09/15 01:43:29;;;;;;;7.17;6.47;;;;;;;22.25;55.64;97760.88;8416918;28;20513;-64
2021/09/15 01:47:32;;;;;;;9.53;6.30;;;;;;;22.23;55.78;97754.91;8416464;28;20199;-63
2021/09/15 01:51:34;;;;;;;6.77;6.10;;;;;;;22.19;56.16;97747.44;8416694;28;20234;-63
2021/09/15 01:55:39;;;;;;;11.27;6.23;;;;;;;22.04;56.56;97739.19;8416763;28;20205;-63
2021/09/15 01:59:42;;;;;;;7.17;6.30;;;;;;;21.96;56.68;97741.72;8416562;28;20201;-63
2021/09/15 02:03:45;;;;;;;7.50;6.07;;;;;;;22.06;56.35;97739.88;8416496;28;20203;-63
2021/09/15 02:07:47;;;;;;;6.50;5.80;;;;;;;21.97;56.54;97736.31;8416516;28;20554;-63
2021/09/15 02:11:52;;;;;;;6.43;5.83;;;;;;;22.11;56.17;97737.63;8416144;28;20238;-63
2021/09/15 02:15:54;;;;;;;6.20;5.53;;;;;;;22.12;56.27;97734.00;8416157;28;20205;-63
2021/09/15 02:19:57;;;;;;;10.17;6.07;;;;;;;22.13;56.07;97733.03;8416443;28;20202;-63
2021/09/15 02:24:00;;;;;;;6.87;5.80;;;;;;;22.10;56.31;97740.41;8415970;28;20209;-64
2021/09/15 02:28:04;;;;;;;7.70;5.90;;;;;;;22.04;56.31;97736.53;8415971;28;20381;-64
2021/09/15 02:32:08;;;;;;;8.50;6.43;;;;;;;22.14;56.12;97736.50;8415817;28;20529;-64
2021/09/15 02:36:11;;;;;;;9.13;6.60;;;;;;;22.12;56.41;97744.53;8416005;28;20541;-64
2021/09/15 02:40:13;;;;;;;6.83;6.07;;;;;;;22.17;56.09;97736.22;8418913;28;20292;-64
2021/09/15 02:44:18;;;;;;;6.70;6.03;;;;;;;22.14;56.35;97729.44;8422864;28;20205;-64
2021/09/15 02:48:21;;;;;;;8.20;6.50;;;;;;;22.05;56.23;97725.84;8422294;28;20218;-64
2021/09/15 02:52:23;;;;;;;8.50;6.30;;;;;;;22.10;56.44;97719.31;8422329;28;20265;-63
2021/09/15 02:56:26;;;;;;;9.40;6.77;;;;;;;22.14;55.89;97725.94;8422099;28;20199;-64
2021/09/15 03:00:30;;;;;;;9.00;6.50;;;;;;;21.99;56.65;97715.06;8422136;28;20202;-64
2021/09/15 03:04:33;;;;;;;7.87;6.23;;;;;;;22.00;56.38;97703.53;8421965;28;20210;-64
2021/09/15 03:08:36;;;;;;;7.90;5.93;;;;;;;22.10;56.05;97703.50;8421638;28;20421;-64
2021/09/15 03:12:39;;;;;;;6.60;5.93;;;;;;;22.15;56.02;97693.34;8421633;28;20257;-63
2021/09/15 03:16:43;;;;;;;6.67;5.97;;;;;;;22.17;55.93;97689.56;8421667;28;20383;-63
2021/09/15 03:20:46;;;;;;;8.43;5.73;;;;;;;22.13;55.98;97695.28;8421446;28;20203;-63
2021/09/15 03:24:49;;;;;;;6.50;5.97;;;;;;;22.15;55.66;97702.06;8421274;28;20216;-63
2021/09/15 03:28:52;;;;;;;8.20;6.10;;;;;;;22.04;56.08;97697.81;8421118;28;20207;-63
2021/09/15 03:32:56;;;;;;;7.73;6.10;;;;;;;21.95;56.20;97688.19;8421027;28;20246;-63
2021/09/15 03:36:59;;;;;;;7.50;6.00;;;;;;;22.02;56.17;97688.41;8421002;28;20199;-63
2021/09/15 03:41:02;;;;;;;6.40;5.80;;;;;;;22.02;55.95;97678.69;8420748;28;20209;-63
2021/09/15 03:45:06;;;;;;;7.67;5.97;;;;;;;22.08;56.03;97679.09;8420626;28;20213;-63
2021/09/15 03:49:10;;;;;;;7.73;6.50;;;;;;;22.11;55.98;97670.88;8420502;28;20411;-63
2021/09/15 03:53:13;;;;;;;6.93;5.93;;;;;;;22.01;56.24;97668.31;8420187;28;20241;-63
2021/09/15 03:57:16;;;;;;;8.13;6.40;;;;;;;22.08;56.25;97669.34;8420362;28;20202;-64
2021/09/15 04:01:19;;;;;;;9.87;6.83;;;;;;;22.04;56.10;97668.81;8420161;28;20202;-63
2021/09/15 04:05:23;;;;;;;7.73;6.10;;;;;;;22.09;55.94;97675.47;8420137;28;20213;-64
2021/09/15 04:09:26;;;;;;;10.10;6.57;;;;;;;21.87;56.97;97674.88;8420179;28;20199;-63
2021/09/15 04:13:29;;;;;;;8.30;6.63;;;;;;;22.00;56.19;97659.53;8419876;28;20407;-63
2021/09/15 04:17:32;;;;;;;6.90;6.20;;;;;;;22.01;56.05;97670.94;8419860;28;20489;-63
2021/09/15 04:21:36;;;;;;;8.80;6.60;;;;;;;21.93;56.60;97666.38;8419640;28;20201;-63
2021/09/15 04:34:20;;;;;;;8.47;7.07;;;;;;;21.84;56.86;97680.47;8418972;28;20248;-63
2021/09/15 04:38:24;;;;;;;9.07;6.60;;;;;;;21.70;57.57;97678.28;8419010;28;20209;-64
2021/09/15 04:42:27;;;;;;;8.83;6.60;;;;;;;21.50;58.40;97673.09;8425194;28;20197;-64
2021/09/15 04:46:30;;;;;;;7.20;6.27;;;;;;;21.66;57.28;97668.03;8450724;28;20201;-64
2021/09/15 04:50:33;;;;;;;7.03;6.33;;;;;;;21.86;56.82;97667.97;8418227;28;20201;-64
2021/09/15 04:54:37;;;;;;;13.53;6.37;;;;;;;21.56;57.90;97672.53;8418416;28;20230;-64
2021/09/15 04:58:40;;;;;;;9.60;7.10;;;;;;;21.75;57.01;97683.97;8418394;28;20209;-63
2021/09/15 05:02:43;;;;;;;7.43;6.00;;;;;;;21.88;57.07;97676.56;8417518;28;20202;-63
2021/09/15 05:06:46;;;;;;;8.67;6.80;;;;;;;21.74;57.24;97683.16;8418137;28;20238;-63
2021/09/15 05:10:51;;;;;;;9.47;6.87;;;;;;;21.88;56.70;97679.19;8417859;28;20249;-63
2021/09/15 05:14:54;;;;;;;9.97;6.90;;;;;;;21.84;56.65;97683.09;8385253;28;20227;-63
2021/09/15 05:18:57;;;;;;;9.30;7.07;;;;;;;21.87;56.75;97693.31;8384672;28;20219;-63
2021/09/15 05:23:00;;;;;;;7.13;6.30;;;;;;;21.95;56.95;97697.88;8384629;28;20215;-63
2021/09/15 05:27:05;;;;;;;9.83;6.80;;;;;;;21.98;56.63;97697.59;8384123;28;20200;-63
2021/09/15 05:31:08;;;;;;;10.13;6.80;;;;;;;21.96;56.85;97696.91;8383991;28;20199;-63
2021/09/15 05:35:12;;;;;;;8.43;7.37;;;;;;;21.93;56.93;97698.00;8383858;28;20534;-64
2021/09/15 05:39:15;;;;;;;8.20;7.40;;;;;;;21.66;57.63;97690.91;8383908;28;20199;-63
2021/09/15 05:43:19;;;;;;;10.13;7.60;;;;;;;21.82;57.68;97695.59;8383988;28;20203;-63
2021/09/15 05:47:22;;;;;;;10.90;7.47;;;;;;;21.66;58.28;97691.75;8392286;28;20393;-63
2021/09/15 05:51:25;;;;;;;11.87;7.73;;;;;;;21.25;59.38;97706.97;8416742;28;20203;-63
2021/09/15 05:55:28;;;;;;;9.43;7.00;;;;;;;21.10;60.63;97692.56;8416692;28;20226;-63
2021/09/15 05:59:32;;;;;;;8.10;7.37;;;;;;;21.28;59.53;97704.06;8416701;28;20380;-63
2021/09/15 06:03:35;;;;;;;7.20;6.50;;;;;;;21.46;58.99;97700.72;8416536;28;20206;-63
2021/09/15 06:07:38;;;;;;;9.03;7.20;;;;;;;21.24;59.43;97705.28;8416355;28;20238;-63
2021/09/15 06:11:41;;;;;;;7.97;7.17;;;;;;;21.46;59.07;97712.06;8416328;28;20515;-63
2021/09/15 06:15:45;;;;;;;14.10;8.10;;;;;;;21.37;59.53;97696.25;8415308;28;20233;-63
2021/09/15 06:19:48;;;;;;;8.10;7.27;;;;;;;21.45;60.02;97702.50;8416180;28;20206;-63
2021/09/15 06:23:52;;;;;;;8.43;7.07;;;;;;;21.72;59.15;97706.16;8415743;28;20199;-63
2021/09/15 06:27:55;;;;;;;8.10;6.97;;;;;;;21.79;59.22;97693.25;8415990;28;20203;-63
2021/09/15 06:32:00;;;;;;;8.53;7.23;;;;;;;21.94;59.84;97694.41;8415947;28;20202;-62
2021/09/15 06:36:03;;;;;;;8.17;7.37;;;;;;;21.80;60.16;97701.00;8415730;28;20231;-63
2021/09/15 06:40:07;;;;;;;8.40;7.50;;;;;;;21.97;60.07;97704.69;8415864;28;20418;-63
2021/09/15 06:44:10;;;;;;;9.90;7.80;;;;;;;22.09;59.31;97705.31;8415896;28;20204;-63
2021/09/15 06:48:14;;;;;;;8.13;7.43;;;;;;;21.89;60.54;97698.47;8415582;28;20203;-63
2021/09/15 06:52:17;;;;;;;9.00;8.20;;;;;;;21.92;61.18;97693.72;8415635;28;20202;-63
2021/09/15 06:56:20;;;;;;;11.80;8.50;;;;;;;21.90;60.71;97694.88;8415576;28;20225;-63
2021/09/15 07:00:23;;;;;;;8.50;7.70;;;;;;;22.09;61.03;97705.31;8415506;28;20198;-63
2021/09/15 07:04:27;;;;;;;11.33;8.10;;;;;;;22.19;60.14;97677.06;8415485;28;20498;-63
2021/09/15 07:08:30;;;;;;;10.40;8.03;;;;;;;21.91;60.92;97689.41;8415407;28;20298;-63
2021/09/15 07:12:33;;;;;;;11.23;8.60;;;;;;;21.77;61.66;97693.38;8415195;28;20206;-63
2021/09/15 07:16:38;;;;;;;9.37;8.37;;;;;;;21.89;61.13;97709.00;8415254;28;20398;-63
2021/09/15 07:20:42;;;;;;;10.37;7.80;;;;;;;22.13;60.36;97711.13;8415157;28;20404;-63
2021/09/15 07:24:45;;;;;;;10.53;8.43;;;;;;;21.88;61.80;97705.56;8415351;28;20213;-63
2021/09/15 07:28:48;;;;;;;10.73;8.47;;;;;;;22.04;61.23;97716.28;8421156;28;20214;-63
2021/09/15 07:32:51;;;;;;;10.10;9.00;;;;;;;22.09;61.83;97715.03;8420864;28;20233;-63
2021/09/15 07:37:00;;;;;;;9.97;8.70;;;;;;;22.15;60.89;97717.91;8409230;28;20198;-63
2021/09/15 07:41:03;;;;;;;10.07;9.00;;;;;;;22.19;61.54;97728.97;8406508;28;20207;-63
2021/09/15 07:45:07;;;;;;;10.67;9.50;;;;;;;22.05;61.78;97727.69;8401458;28;20209;-63
2021/09/15 07:49:10;;;;;;;10.67;9.40;;;;;;;22.18;62.00;97728.16;8404989;28;20208;-63
2021/09/15 07:53:14;;;;;;;10.57;9.10;;;;;;;22.32;61.46;97721.59;8403695;28;20226;-63
2021/09/15 07:57:17;;;;;;;12.83;9.23;;;;;;;22.36;62.02;97733.50;8420199;28;20199;-63
2021/09/15 08:01:22;;;;;;;10.83;9.70;;;;;;;22.25;62.30;97737.16;8419976;28;20202;-64
2021/09/15 08:05:25;;;;;;;10.10;9.10;;;;;;;22.38;61.79;97757.09;8418677;28;20203;-62
2021/09/15 08:09:30;;;;;;;9.93;8.90;;;;;;;22.62;61.24;97760.00;8419882;28;20199;-62
2021/09/15 08:13:33;;;;;;;12.87;9.97;;;;;;;22.73;61.60;97763.38;8414596;28;20232;-63
2021/09/15 08:17:36;;;;;;;11.00;9.90;;;;;;;22.82;61.57;97776.50;8419718;28;20205;-63
2021/09/15 08:21:39;;;;;;;12.47;10.70;;;;;;;22.60;62.76;97776.97;8419854;28;20195;-63
2021/09/15 08:25:44;;;;;;;12.80;10.60;;;;;;;22.79;62.39;97774.19;8419233;28;20214;-63
2021/09/15 08:29:47;;;;;;;13.00;10.50;;;;;;;22.63;63.48;97777.47;8419270;28;20203;-63
2021/09/15 08:33:50;;;;;;;12.27;10.33;;;;;;;22.76;62.24;97781.56;8418985;28;20246;-63
2021/09/15 08:37:53;;;;;;;12.10;10.43;;;;;;;22.82;62.73;97783.63;8418446;28;20398;-63
2021/09/15 08:41:58;;;;;;;11.90;10.70;;;;;;;22.99;62.17;97781.97;8419035;28;20199;-62
2021/09/15 08:46:02;;;;;;;11.03;9.67;;;;;;;23.14;61.47;97771.72;8418748;28;20214;-63
2021/09/15 08:50:07;;;;;;;13.10;9.30;;;;;;;23.29;61.34;97772.84;8418664;28;20243;-62
2021/09/15 08:54:10;;;;;;;11.63;9.10;;;;;;;23.66;60.85;97761.19;8418619;28;20405;-62
2021/09/15 08:58:16;;;;;;;10.97;10.03;;;;;;;23.80;60.58;97765.97;8418290;28;20206;-62
2021/09/15 09:02:19;;;;;;;10.23;9.23;;;;;;;23.75;60.78;97767.38;8418307;28;20195;-63
2021/09/15 09:06:23;;;;;;;11.67;10.57;;;;;;;23.79;60.74;97759.00;8418226;28;20239;-63
2021/09/15 09:10:26;;;;;;;10.47;9.37;;;;;;;23.84;60.71;97750.59;8417907;28;20198;-63
2021/09/15 09:14:30;;;;;;;12.87;10.00;;;;;;;23.53;61.36;97753.72;8417748;28;20241;-63
2021/09/15 09:18:56;;;;;;;10.03;8.47;;;;;;;23.54;60.88;97755.34;8417706;28;20202;-63
2021/09/15 09:23:08;;;;;;;9.43;7.80;;;;;;;23.69;60.38;97747.69;8417748;28;20357;-63
2021/09/15 09:27:11;;;;;;;10.70;8.83;;;;;;;23.60;60.70;97764.47;8417420;28;20203;-63
2021/09/15 09:31:15;;;;;;;11.30;8.47;;;;;;;23.61;60.58;97759.03;8417384;28;20517;-62
2021/09/15 09:35:18;;;;;;;8.97;8.07;;;;;;;23.54;61.53;97773.84;8416971;28;20237;-63
2021/09/15 09:39:21;;;;;;;9.47;7.47;;;;;;;23.64;60.16;97768.47;8417166;28;20206;-62
2021/09/15 09:43:24;;;;;;;10.80;7.60;;;;;;;23.62;61.49;97767.78;8417059;28;20300;-62
2021/09/15 09:47:28;;;;;;;9.47;8.50;;;;;;;23.67;61.98;97762.06;8426216;28;20201;-62
2021/09/15 09:51:33;;;;;;;10.23;7.23;;;;;;;23.50;61.95;97761.13;8450358;28;20198;-63
2021/09/15 09:55:40;;;;;;;8.20;7.00;;;;;;;23.76;60.22;97764.59;8450338;28;20222;-62
2021/09/15 09:59:43;;;;;;;9.83;7.90;;;;;;;23.60;62.43;97761.84;8450398;28;20497;-63
2021/09/15 10:03:48;;;;;;;9.83;7.60;;;;;;;23.74;61.91;97757.78;8450271;28;20203;-63
2021/09/15 10:07:51;;;;;;;9.17;7.73;;;;;;;23.76;61.37;97734.66;8449933;28;20239;-63
2021/09/15 10:11:56;;;;;;;9.13;7.27;;;;;;;23.84;61.28;97741.81;8450009;28;20221;-62
2021/09/15 10:16:03;;;;;;;8.63;6.50;;;;;;;23.85;60.96;97739.03;8449752;28;20225;-63
2021/09/15 10:20:09;;;;;;;12.60;7.43;;;;;;;23.76;61.56;97729.38;8449780;28;20207;-62
2021/09/15 10:24:13;;;;;;;10.03;6.70;;;;;;;23.85;60.71;97732.94;8449888;28;20489;-63
2021/09/15 10:28:17;;;;;;;10.70;5.57;;;;;;;23.71;61.93;97734.31;8449622;28;20227;-62
2021/09/15 10:32:31;;;;;;;10.07;5.17;;;;;;;23.83;60.42;97726.97;8449376;28;20204;-62
2021/09/15 10:36:39;;;;;;;9.20;5.67;;;;;;;23.88;60.50;97717.56;8428776;28;20227;-62
2021/09/15 10:40:45;;;;;;;8.03;5.17;;;;;;;23.94;59.88;97716.13;8416062;28;20205;-62
2021/09/15 10:45:12;;;;;;;7.00;5.00;;;;;;;23.91;61.71;97727.00;8415918;28;20213;-62
2021/09/15 10:49:34;;;;;;;10.83;5.77;;;;;;;23.89;60.04;97740.38;8415724;28;20203;-62
2021/09/15 10:53:38;;;;;;;11.33;4.87;;;;;;;23.86;60.33;97735.41;8415463;28;20218;-61
2021/09/15 10:57:44;;;;;;;7.77;4.87;;;;;;;23.91;59.76;97730.50;8404320;28;20247;-62
2021/09/15 11:01:46;;;;;;;6.77;3.97;;;;;;;23.78;61.31;97724.78;8386065;28;20383;-65
2021/09/15 11:05:51;;;;;;;7.97;4.13;;;;;;;23.87;60.42;97736.25;8388663;28;20242;-65
2021/09/15 11:09:59;;;;;;;8.23;4.03;;;;;;;23.73;61.88;97737.63;8388683;28;20211;-65
2021/09/15 11:14:05;;;;;;;6.93;3.73;;;;;;;23.62;61.78;97750.09;8388694;28;20200;-66
2021/09/15 11:18:09;;;;;;;6.77;3.47;;;;;;;23.57;61.96;97741.84;8399039;28;20203;-64
2021/09/15 11:22:12;;;;;;;12.30;3.57;;;;;;;23.29;62.90;97743.78;8388309;28;20200;-65
2021/09/15 11:26:34;;;;;;;7.30;3.47;;;;;;;23.38;61.94;97734.94;8388334;28;20241;-65
2021/09/15 11:30:38;;;;;;;10.67;4.53;;;;;;;23.46;61.81;97733.34;8388134;28;20203;-65
2021/09/15 11:34:43;;;;;;;11.77;4.17;;;;;;;23.40;62.03;97729.50;8392595;28;20222;-65
2021/09/15 11:38:47;;;;;;;10.87;3.90;;;;;;;23.38;61.99;97742.00;8421080;28;20209;-65
2021/09/15 11:42:52;;;;;;;9.00;4.47;;;;;;;23.45;61.80;97735.13;8420953;28;20207;-65
2021/09/15 11:46:55;;;;;;;8.23;4.07;;;;;;;23.50;61.66;97732.03;8420827;28;20217;-65
2021/09/15 11:50:58;;;;;;;10.67;3.93;;;;;;;23.47;62.05;97735.81;8389524;28;20203;-65
2021/09/15 11:55:04;;;;;;;8.27;4.07;;;;;;;23.47;62.04;97727.88;8387135;28;20239;-65
2021/09/15 11:59:10;;;;;;;12.23;4.03;;;;;;;23.38;61.71;97727.00;8387355;28;20524;-65
2021/09/15 12:03:33;;;;;;;8.57;3.43;;;;;;;23.41;61.98;97721.41;8390960;28;20195;-65
2021/09/15 12:07:37;;;;;;;7.67;3.93;;;;;;;23.26;62.03;97719.50;8386889;28;20235;-65
2021/09/15 12:11:40;;;;;;;6.60;3.50;;;;;;;23.36;62.01;97714.91;8407349;28;20379;-65
2021/09/15 12:15:46;;;;;;;6.87;3.20;;;;;;;23.17;61.85;97714.16;8413678;28;20417;-65
2021/09/15 12:19:50;;;;;;;9.47;3.63;;;;;;;23.28;62.43;97715.69;8419691;28;20205;-65
2021/09/15 12:24:01;;;;;;;8.37;3.50;;;;;;;23.18;62.37;97707.88;8404539;28;20204;-65
2021/09/15 12:28:06;;;;;;;8.07;3.67;;;;;;;23.11;63.04;97706.00;8401999;28;20199;-61
2021/09/15 12:32:10;;;;;;;6.40;3.47;;;;;;;23.20;62.68;97697.16;8401863;28;20209;-61
2021/09/15 12:36:16;;;;;;;10.30;3.87;;;;;;;23.21;62.08;97694.38;8401531;28;20244;-62
2021/09/15 12:40:20;;;;;;;7.60;3.53;;;;;;;23.13;62.14;97696.09;8399385;28;20211;-62
2021/09/15 12:44:33;;;;;;;7.03;3.27;;;;;;;23.31;61.52;97709.28;8385755;28;20206;-62
2021/09/15 12:48:40;;;;;;;4.73;3.10;;;;;;;23.19;60.82;97700.81;8385539;28;20205;-62
2021/09/15 12:52:44;;;;;;;9.97;4.73;;;;;;;23.55;60.17;97700.66;8385555;28;20257;-62
2021/09/15 12:56:47;;;;;;;6.40;3.00;;;;;;;23.71;59.04;97689.38;8385199;28;20236;-62
2021/09/15 13:00:50;;;;;;;9.00;3.13;;;;;;;24.54;57.81;97691.34;8385415;28;20200;-62
2021/09/15 13:04:55;;;;;;;8.47;3.13;;;;;;;25.07;56.65;97691.88;8385206;28;20274;-62
2021/09/15 13:08:58;;;;;;;7.33;3.37;;;;;;;24.45;55.98;97666.66;8384968;28;20235;-62
2021/09/15 13:13:01;;;;;;;15.73;4.70;;;;;;;24.44;56.43;97664.16;8384689;28;20208;-62
2021/09/15 13:17:08;;;;;;;6.77;3.10;;;;;;;24.68;54.92;97650.19;8384848;28;20223;-62
2021/09/15 13:21:12;;;;;;;6.03;2.60;;;;;;;24.80;54.40;97651.47;8389984;28;20202;-62
2021/09/15 13:25:16;;;;;;;5.93;3.00;;;;;;;24.67;53.98;97641.38;8391782;28;20214;-62
2021/09/15 13:29:18;;;;;;;6.50;2.70;;;;;;;24.67;54.17;97640.56;8400097;28;20198;-62
2021/09/15 13:33:22;;;;;;;4.30;2.40;;;;;;;24.75;53.97;97641.41;8399824;28;20219;-62
2021/09/15 13:37:27;;;;;;;6.53;2.60;;;;;;;24.79;53.48;97636.59;8409925;28;20230;-62
2021/09/15 13:41:29;;;;;;;5.23;2.70;;;;;;;25.00;54.21;97638.75;8400218;28;20263;-62
2021/09/15 13:45:32;;;;;;;4.00;2.23;;;;;;;24.98;54.50;97640.72;8417185;28;20396;-62
2021/09/15 13:49:39;;;;;;;2.87;2.10;;;;;;;24.82;53.54;97643.38;8416868;28;20227;-62
2021/09/15 13:53:44;;;;;;;3.57;2.30;;;;;;;24.74;53.28;97641.56;8413351;28;20194;-63
2021/09/15 13:57:48;;;;;;;6.37;2.77;;;;;;;24.77;54.06;97633.31;8391533;28;20220;-62
2021/09/15 14:01:52;;;;;;;4.87;2.30;;;;;;;24.87;54.12;97638.44;8383395;28;20222;-62
2021/09/15 14:05:54;;;;;;;3.33;2.07;;;;;;;24.70;54.47;97637.59;8383071;28;20423;-62
2021/09/15 14:10:01;;;;;;;6.03;2.20;;;;;;;24.69;54.73;97628.81;8383230;28;20199;-62
2021/09/15 14:14:24;;;;;;;5.73;2.10;;;;;;;24.52;54.41;97621.84;8388245;28;20204;-62
2021/09/15 14:18:27;;;;;;;3.90;2.47;;;;;;;24.58;55.04;97622.03;8382838;28;20423;-62
2021/09/15 14:22:30;;;;;;;5.27;2.80;;;;;;;24.63;55.11;97618.06;8383259;28;20234;-62
2021/09/15 14:26:35;;;;;;;3.83;2.10;;;;;;;24.45;55.65;97613.72;8382899;28;20207;-63
2021/09/15 14:30:38;;;;;;;6.57;2.60;;;;;;;24.43;54.44;97623.66;8382799;28;20211;-62
2021/09/15 14:34:42;;;;;;;31.20;6.40;;;;;;;24.43;55.37;97614.88;8386294;28;20286;-63
2021/09/15 14:38:46;;;;;;;3.77;2.03;;;;;;;24.52;54.30;97612.13;8415985;28;20565;-63
2021/09/15 14:42:50;;;;;;;9.70;3.33;;;;;;;24.50;55.48;97608.78;8415371;28;20199;-62
2021/09/15 14:46:53;;;;;;;5.60;2.33;;;;;;;24.34;55.07;97614.88;8414900;28;20203;-62
2021/09/15 14:50:56;;;;;;;4.73;2.30;;;;;;;24.35;55.52;97608.59;8409235;28;20196;-63
2021/09/15 14:54:59;;;;;;;8.90;2.50;;;;;;;24.47;54.90;97611.75;8397859;28;20200;-62
2021/09/15 14:59:03;;;;;;;3.10;2.10;;;;;;;24.54;55.69;97606.63;8395292;28;20227;-62
2021/09/15 15:03:06;;;;;;;5.80;2.73;;;;;;;24.52;54.92;97604.19;8398059;28;20269;-63
2021/09/15 15:07:09;;;;;;;8.53;2.70;;;;;;;24.57;54.81;97604.50;8397926;28;20242;-63
2021/09/15 15:11:12;;;;;;;4.27;2.00;;;;;;;24.84;54.17;97613.09;8397908;28;20191;-63
2021/09/15 15:15:17;;;;;;;4.30;2.23;;;;;;;25.12;53.52;97610.91;8397923;28;20403;-63
2021/09/15 15:19:22;;;;;;;2.70;2.33;;;;;;;25.09;53.68;97605.94;8399335;28;20220;-63
2021/09/15 15:23:25;;;;;;;3.87;2.37;;;;;;;24.86;54.30;97603.16;8397770;28;20217;-62
2021/09/15 15:27:27;;;;;;;5.47;2.47;;;;;;;24.87;53.78;97601.34;8397470;28;20202;-62
2021/09/15 15:31:32;;;;;;;3.47;2.40;;;;;;;24.75;53.66;97596.41;8406264;28;20202;-62
2021/09/15 15:35:37;;;;;;;4.37;2.50;;;;;;;24.63;54.29;97595.06;8414648;28;20223;-62
2021/09/15 15:39:40;;;;;;;3.77;2.30;;;;;;;24.65;54.00;97595.72;8415027;28;20204;-62
2021/09/15 15:43:43;;;;;;;4.43;2.37;;;;;;;24.88;53.45;97597.69;8414927;28;20206;-62
2021/09/15 15:47:48;;;;;;;4.33;2.40;;;;;;;24.82;53.30;97598.38;8418266;28;20207;-62
2021/09/15 15:51:50;;;;;;;3.90;2.30;;;;;;;24.91;53.51;97600.84;8420564;28;20206;-62
2021/09/15 15:55:53;;;;;;;5.97;2.47;;;;;;;24.80;53.80;97603.81;8420391;28;20202;-62
2021/09/15 15:59:56;;;;;;;4.67;2.27;;;;;;;24.61;54.07;97599.69;8420485;28;20211;-62
2021/09/15 16:04:05;;;;;;;4.53;2.60;;;;;;;24.44;54.86;97600.66;8420301;28;20199;-62
2021/09/15 16:08:08;;;;;;;5.47;2.57;;;;;;;24.36;55.44;97599.66;8420081;28;20239;-62
2021/09/15 16:12:11;;;;;;;4.30;2.40;;;;;;;24.17;55.15;97603.44;8420245;28;20211;-63
2021/09/15 16:16:14;;;;;;;2.93;2.43;;;;;;;24.14;55.06;97600.28;8419929;28;20229;-62
2021/09/15 16:20:18;;;;;;;3.37;2.30;;;;;;;24.10;55.30;97609.53;8419749;28;20200;-62
2021/09/15 16:24:21;;;;;;;3.63;2.50;;;;;;;24.05;55.65;97603.94;8419603;28;20487;-62
2021/09/15 16:28:24;;;;;;;5.30;3.13;;;;;;;23.95;55.94;97602.25;8419509;28;20277;-62
2021/09/15 16:32:28;;;;;;;5.77;2.47;;;;;;;23.99;55.90;97600.94;8419441;28;20205;-63
2021/09/15 16:36:32;;;;;;;3.90;2.33;;;;;;;23.91;56.08;97600.91;8419084;28;20249;-62
2021/09/15 16:40:35;;;;;;;5.10;2.67;;;;;;;23.89;56.24;97604.69;8419184;28;20479;-63
2021/09/15 16:44:38;;;;;;;7.33;2.80;;;;;;;23.79;56.43;97602.19;8418975;28;20222;-62
2021/09/15 16:48:41;;;;;;;4.40;2.60;;;;;;;23.80;56.69;97602.03;8429756;28;20195;-63
2021/09/15 16:52:45;;;;;;;8.23;2.87;;;;;;;23.71;56.94;97602.13;8399760;28;20191;-63
2021/09/15 16:56:48;;;;;;;4.70;2.50;;;;;;;23.75;57.21;97606.13;8400159;28;20215;-62
2021/09/15 17:00:51;;;;;;;6.27;2.63;;;;;;;23.60;57.85;97593.50;8399699;28;20390;-62
2021/09/15 17:04:54;;;;;;;4.43;2.60;;;;;;;23.64;57.16;97594.00;8398308;28;20195;-62
2021/09/15 17:08:58;;;;;;;4.97;2.40;;;;;;;23.53;57.44;97597.78;8398195;28;20420;-62
2021/09/15 17:13:01;;;;;;;5.83;2.90;;;;;;;23.57;57.49;97590.34;8401607;28;20213;-63
2021/09/15 17:17:04;;;;;;;3.53;2.60;;;;;;;23.57;57.42;97582.41;8401465;28;20394;-62
2021/09/15 17:21:07;;;;;;;4.30;2.60;;;;;;;23.55;57.75;97579.94;8400878;28;20305;-62
2021/09/15 17:25:12;;;;;;;34.90;4.97;;;;;;;23.53;57.56;97581.94;8406207;28;20204;-62
2021/09/15 17:29:16;;;;;;;3.53;2.70;;;;;;;23.58;57.44;97581.44;8417625;28;20214;-62
2021/09/15 17:33:19;;;;;;;8.03;3.13;;;;;;;23.51;57.78;97590.97;8417216;28;20571;-62
2021/09/15 17:37:22;;;;;;;6.40;2.90;;;;;;;23.43;57.64;97595.25;8408017;28;20223;-62
2021/09/15 17:41:26;;;;;;;4.47;2.67;;;;;;;23.47;57.53;97598.41;8388603;28;20525;-62
2021/09/15 17:45:29;;;;;;;3.70;2.70;;;;;;;23.50;57.64;97610.47;8394345;28;20195;-62
2021/09/15 17:49:32;;;;;;;4.67;3.20;;;;;;;23.42;57.62;97613.91;8399458;28;20410;-63
2021/09/15 17:53:35;;;;;;;3.13;2.77;;;;;;;23.45;57.91;97615.41;8399535;28;20194;-63
2021/09/15 17:57:39;;;;;;;6.93;3.00;;;;;;;23.39;57.86;97615.03;8403721;28;20215;-62
2021/09/15 18:01:42;;;;;;;4.37;3.17;;;;;;;23.34;57.90;97622.63;8400164;28;20191;-62
2021/09/15 18:05:45;;;;;;;5.53;2.60;;;;;;;23.33;58.01;97620.16;8401461;28;20498;-62
2021/09/15 18:09:48;;;;;;;4.37;2.87;;;;;;;23.36;57.84;97618.03;8398724;28;20206;-62
2021/09/15 18:13:52;;;;;;;4.07;3.03;;;;;;;23.31;58.42;97617.66;8398812;28;20256;-62
2021/09/15 18:17:55;;;;;;;6.50;2.80;;;;;;;23.32;58.04;97623.75;8395994;28;20548;-62
2021/09/15 18:21:58;;;;;;;5.20;3.10;;;;;;;23.30;58.22;97615.97;8392454;28;20196;-63
2021/09/15 18:26:01;;;;;;;5.90;2.87;;;;;;;23.27;58.30;97624.25;8401263;28;20210;-63
2021/09/15 18:30:07;;;;;;;4.93;3.10;;;;;;;23.15;58.65;97626.31;8397145;28;20203;-62
2021/09/15 18:34:10;;;;;;;3.20;2.73;;;;;;;23.12;58.13;97637.19;8394630;28;20216;-62
2021/09/15 18:38:13;;;;;;;4.13;3.10;;;;;;;22.87;59.00;97635.34;8412512;28;20222;-63
2021/09/15 18:42:15;;;;;;;5.90;3.20;;;;;;;22.93;58.42;97642.63;8399599;28;20194;-63
2021/09/15 18:46:20;;;;;;;4.93;2.80;;;;;;;22.97;58.42;97654.53;8398147;28;20198;-62
2021/09/15 18:50:23;;;;;;;6.03;3.30;;;;;;;22.89;58.37;97652.69;8398126;28;20200;-63
2021/09/15 18:54:25;;;;;;;4.90;3.10;;;;;;;22.83;58.11;97655.94;8397837;28;20386;-63
2021/09/15 18:58:28;;;;;;;5.43;3.20;;;;;;;22.81;57.82;97664.00;8399006;28;20219;-63
2021/09/15 19:02:33;;;;;;;6.30;3.00;;;;;;;22.70;58.16;97669.50;8397974;28;20597;-63
2021/09/15 19:06:35;;;;;;;5.30;3.00;;;;;;;22.67;57.94;97667.16;8398137;28;20533;-63
2021/09/15 19:10:38;;;;;;;5.13;3.07;;;;;;;22.67;58.39;97677.72;8397976;28;20202;-63
2021/09/15 19:14:41;;;;;;;5.07;3.43;;;;;;;22.68;58.16;97668.03;8397896;28;20192;-63